createdAt,value
2018-09-10T00:00:21.571Z,18.10
2018-09-10T00:02:52.109Z,18.00
2018-09-10T00:05:22.603Z,18.00
2018-09-10T00:07:53.127Z,17.90
2018-09-10T00:10:23.867Z,17.80
2018-09-10T00:12:54.479Z,17.70
2018-09-10T00:15:25.051Z,17.60
2018-09-10T00:17:55.601Z,17.60
2018-09-10T00:20:26.233Z,17.50
2018-09-10T00:22:56.937Z,17.40
2018-09-10T00:25:27.374Z,17.40
2018-09-10T00:27:59.108Z,17.30
2018-09-10T00:30:29.588Z,17.30
2018-09-10T00:33:00.227Z,17.40
2018-09-10T00:35:30.789Z,17.50
2018-09-10T00:38:01.360Z,17.50
2018-09-10T00:40:32.178Z,17.50
2018-09-10T00:43:02.790Z,17.60
2018-09-10T00:45:33.412Z,17.50
2018-09-10T00:48:04.000Z,17.40
2018-09-10T00:50:34.542Z,17.40
2018-09-10T00:53:05.775Z,17.30
2018-09-10T00:55:36.295Z,17.30
2018-09-10T00:58:06.783Z,17.30
2018-09-10T01:00:37.186Z,17.20
2018-09-10T01:03:07.601Z,17.20
2018-09-10T01:05:38.166Z,17.10
2018-09-10T01:08:08.618Z,17.10
2018-09-10T01:10:39.178Z,17.10
2018-09-10T01:13:09.785Z,17.10
2018-09-10T01:15:40.381Z,17.10
2018-09-10T01:18:10.820Z,17.10
2018-09-10T01:20:41.667Z,17.00
2018-09-10T01:23:12.586Z,17.00
2018-09-10T01:25:42.980Z,16.90
2018-09-10T01:28:13.362Z,16.90
2018-09-10T01:30:43.769Z,17.00
2018-09-10T01:33:19.150Z,17.00
2018-09-10T01:35:50.346Z,17.00
2018-09-10T01:38:21.802Z,17.00
2018-09-10T01:40:52.411Z,17.00
2018-09-10T01:43:23.023Z,17.10
2018-09-10T01:45:53.630Z,17.10
2018-09-10T01:48:24.481Z,17.20
2018-09-10T01:50:55.000Z,17.10
2018-09-10T01:53:25.439Z,17.10
2018-09-10T01:55:55.944Z,17.10
2018-09-10T01:58:26.383Z,17.10
2018-09-10T02:00:56.888Z,16.90
2018-09-10T02:03:27.208Z,16.80
2018-09-10T02:05:57.845Z,16.50
2018-09-10T02:08:28.461Z,16.40
2018-09-10T02:10:59.493Z,16.40
2018-09-10T02:13:30.013Z,16.30
2018-09-10T02:16:00.446Z,16.30
2018-09-10T02:18:30.998Z,16.30
2018-09-10T02:21:01.409Z,16.40
2018-09-10T02:23:31.964Z,16.40
2018-09-10T02:26:02.457Z,16.50
2018-09-10T02:28:33.017Z,16.50
2018-09-10T02:31:04.092Z,16.50
2018-09-10T02:33:34.468Z,16.60
2018-09-10T02:36:05.326Z,16.60
2018-09-10T02:38:36.653Z,16.60
2018-09-10T02:41:07.117Z,16.60
2018-09-10T02:43:37.633Z,16.60
2018-09-10T02:46:08.430Z,16.60
2018-09-10T02:48:38.943Z,16.50
2018-09-10T02:51:10.600Z,16.50
2018-09-10T02:53:40.915Z,16.40
2018-09-10T02:56:12.142Z,16.50
2018-09-10T02:58:42.535Z,16.50
2018-09-10T03:01:13.377Z,16.50
2018-09-10T03:03:44.209Z,16.40
2018-09-10T03:06:14.674Z,16.30
2018-09-10T03:08:45.169Z,16.20
2018-09-10T03:11:15.669Z,16.20
2018-09-10T03:13:46.197Z,16.20
2018-09-10T03:16:16.788Z,16.20
2018-09-10T03:18:47.585Z,16.20
2018-09-10T03:21:17.980Z,16.20
2018-09-10T03:23:48.319Z,16.20
2018-09-10T03:26:18.799Z,16.10
2018-09-10T03:28:49.394Z,16.10
2018-09-10T03:31:20.024Z,16.10
2018-09-10T03:33:50.905Z,16.10
2018-09-10T03:36:22.090Z,16.00
2018-09-10T03:38:52.575Z,16.00
2018-09-10T03:41:23.046Z,15.90
2018-09-10T03:43:53.461Z,16.00
2018-09-10T03:46:23.912Z,16.00
2018-09-10T03:48:54.373Z,16.00
2018-09-10T03:51:24.930Z,15.90
2018-09-10T03:53:55.456Z,15.90
2018-09-10T03:56:25.987Z,15.80
2018-09-10T03:58:56.501Z,15.80
2018-09-10T04:01:26.969Z,15.70
2018-09-10T04:03:57.367Z,15.70
2018-09-10T04:06:27.940Z,15.70
2018-09-10T04:08:58.697Z,15.70
2018-09-10T04:11:29.204Z,15.70
2018-09-10T04:13:59.517Z,15.60
2018-09-10T04:16:29.971Z,15.70
2018-09-10T04:19:00.501Z,15.70
2018-09-10T04:21:31.138Z,15.70
2018-09-10T04:24:01.611Z,15.70
2018-09-10T04:26:32.059Z,15.60
2018-09-10T04:29:02.647Z,15.60
2018-09-10T04:31:33.165Z,15.70
2018-09-10T04:34:03.644Z,15.60
2018-09-10T04:36:34.185Z,15.70
2018-09-10T04:39:06.872Z,15.70
2018-09-10T04:41:41.986Z,15.70
2018-09-10T04:44:12.361Z,15.70
2018-09-10T04:46:43.350Z,15.70
2018-09-10T04:49:13.755Z,15.70
2018-09-10T04:51:44.319Z,15.70
2018-09-10T04:54:14.778Z,15.70
2018-09-10T04:56:45.372Z,15.80
2018-09-10T04:59:15.799Z,15.80
2018-09-10T05:01:46.539Z,15.80
2018-09-10T05:04:17.109Z,15.80
2018-09-10T05:06:47.503Z,15.80
2018-09-10T05:09:18.122Z,15.80
2018-09-10T05:11:49.007Z,15.80
2018-09-10T05:14:19.817Z,15.70
2018-09-10T05:16:51.630Z,15.80
2018-09-10T05:19:22.578Z,15.70
2018-09-10T05:21:54.630Z,15.60
2018-09-10T05:24:25.285Z,15.60
2018-09-10T05:26:55.976Z,15.70
2018-09-10T05:29:26.375Z,15.70
2018-09-10T05:31:57.504Z,15.70
2018-09-10T05:34:28.227Z,15.70
2018-09-10T05:36:59.767Z,15.80
2018-09-10T05:39:30.313Z,16.00
2018-09-10T05:42:00.832Z,16.30
2018-09-10T05:44:31.274Z,16.50
2018-09-10T05:47:01.982Z,16.90
2018-09-10T05:49:32.478Z,17.10
2018-09-10T05:52:03.340Z,17.30
2018-09-10T05:54:33.821Z,17.60
2018-09-10T05:57:04.319Z,17.90
2018-09-10T05:59:34.733Z,18.20
2018-09-10T06:02:05.270Z,18.50
2018-09-10T06:04:36.423Z,18.60
2018-09-10T06:07:07.288Z,18.90
2018-09-10T06:09:37.799Z,19.30
2018-09-10T06:12:08.552Z,19.50
2018-09-10T06:14:38.982Z,19.80
2018-09-10T06:17:09.751Z,20.20
2018-09-10T06:19:40.381Z,20.40
2018-09-10T06:22:12.493Z,20.80
2018-09-10T06:24:43.118Z,20.90
2018-09-10T06:27:13.809Z,21.20
2018-09-10T06:29:44.368Z,21.50
2018-09-10T06:32:15.055Z,21.50
2018-09-10T06:34:45.725Z,21.70
2018-09-10T06:37:16.269Z,22.00
2018-09-10T06:39:47.097Z,22.30
2018-09-10T06:42:17.831Z,22.60
2018-09-10T06:44:48.579Z,22.70
2018-09-10T06:47:20.160Z,22.90
2018-09-10T06:49:51.915Z,23.20
2018-09-10T06:52:22.846Z,23.50
2018-09-10T06:54:53.546Z,23.60
2018-09-10T06:57:24.073Z,23.80
2018-09-10T06:59:56.319Z,24.10
2018-09-10T07:02:27.437Z,24.30
2018-09-10T07:04:58.949Z,24.40
2018-09-10T07:07:29.383Z,24.70
2018-09-10T07:09:59.911Z,25.00
2018-09-10T07:12:31.911Z,25.30
2018-09-10T07:15:02.842Z,25.40
2018-09-10T07:17:33.468Z,25.40
2018-09-10T07:20:04.496Z,25.60
2018-09-10T07:22:35.046Z,25.90
2018-09-10T07:25:06.059Z,26.10
2018-09-10T07:27:36.800Z,26.40
2018-09-10T07:30:08.263Z,26.50
2018-09-10T07:32:38.777Z,26.60
2018-09-10T07:35:09.343Z,26.70
2018-09-10T07:37:39.896Z,27.10
2018-09-10T07:40:10.591Z,27.20
2018-09-10T07:42:42.177Z,26.90
2018-09-10T07:45:12.815Z,26.70
2018-09-10T07:47:43.639Z,26.60
2018-09-10T07:50:15.669Z,26.70
2018-09-10T07:52:46.328Z,26.70
2018-09-10T07:55:16.823Z,27.10
2018-09-10T07:57:47.379Z,27.50
2018-09-10T08:00:19.192Z,27.80
2018-09-10T08:02:50.137Z,28.20
2018-09-10T08:05:21.121Z,28.20
2018-09-10T08:07:51.937Z,28.40
2018-09-10T08:10:22.826Z,28.70
2018-09-10T08:12:53.532Z,29.10
2018-09-10T08:15:24.002Z,29.20
2018-09-10T08:17:54.633Z,29.30
2018-09-10T08:20:25.423Z,29.50
2018-09-10T08:22:55.874Z,29.70
2018-09-10T08:25:26.340Z,30.10
2018-09-10T08:28:00.365Z,30.10
2018-09-10T08:30:31.259Z,30.10
2018-09-10T08:33:01.756Z,30.30
2018-09-10T08:35:32.230Z,30.60
2018-09-10T08:38:04.436Z,30.70
2018-09-10T08:40:35.764Z,31.20
2018-09-10T08:43:07.205Z,31.10
2018-09-10T08:45:41.022Z,31.50
2018-09-10T08:48:13.404Z,32.00
2018-09-10T08:50:44.088Z,32.20
2018-09-10T08:53:14.881Z,32.40
2018-09-10T08:55:46.024Z,32.60
2018-09-10T08:58:16.751Z,32.60
2018-09-10T09:00:47.988Z,32.30
2018-09-10T09:03:18.454Z,32.60
2018-09-10T09:05:50.731Z,32.60
2018-09-10T09:08:21.524Z,31.80
2018-09-10T09:10:52.857Z,32.20
2018-09-10T09:13:23.840Z,32.70
2018-09-10T09:15:54.782Z,32.30
2018-09-10T09:18:25.522Z,32.30
2018-09-10T09:20:56.642Z,31.90
2018-09-10T09:23:30.739Z,32.80
2018-09-10T09:26:02.941Z,33.20
2018-09-10T09:28:33.673Z,33.90
2018-09-10T09:31:04.393Z,34.50
2018-09-10T09:33:35.413Z,34.70
2018-09-10T09:36:11.338Z,34.60
2018-09-10T09:38:46.837Z,34.70
2018-09-10T09:41:22.476Z,34.60
2018-09-10T09:43:58.197Z,34.80
2018-09-10T09:46:28.927Z,34.90
2018-09-10T09:48:59.701Z,34.80
2018-09-10T09:51:30.468Z,34.70
2018-09-10T09:54:01.610Z,35.20
2018-09-10T09:56:32.964Z,35.40
2018-09-10T09:59:03.879Z,35.40
2018-09-10T10:01:45.338Z,35.40
2018-09-10T10:04:17.752Z,35.70
2018-09-10T10:06:50.318Z,35.70
2018-09-10T10:09:22.873Z,35.90
2018-09-10T10:11:54.642Z,36.50
2018-09-10T10:14:26.609Z,36.50
2018-09-10T10:16:59.385Z,36.50
2018-09-10T10:19:31.003Z,36.20
2018-09-10T10:22:04.352Z,35.60
2018-09-10T10:24:36.418Z,35.50
2018-09-10T10:27:09.653Z,35.70
2018-09-10T10:29:42.263Z,35.60
2018-09-10T10:32:14.724Z,35.20
2018-09-10T10:34:46.839Z,35.50
2018-09-10T10:37:21.497Z,34.80
2018-09-10T10:39:55.235Z,34.20
2018-09-10T10:42:28.320Z,34.60
2018-09-10T10:45:04.171Z,35.10
2018-09-10T10:47:36.694Z,34.90
2018-09-10T10:50:09.938Z,35.30
2018-09-10T10:52:41.737Z,35.40
2018-09-10T10:55:14.787Z,34.90
2018-09-10T10:57:48.378Z,33.90
2018-09-10T11:00:21.607Z,34.10
2018-09-10T11:02:54.119Z,34.20
2018-09-10T11:05:27.237Z,34.60
2018-09-10T11:07:58.542Z,34.90
2018-09-10T11:10:30.038Z,34.80
2018-09-10T11:13:00.918Z,34.40
2018-09-10T11:15:32.085Z,34.00
2018-09-10T11:18:04.686Z,34.20
2018-09-10T11:20:36.478Z,34.70
2018-09-10T11:23:08.409Z,35.30
2018-09-10T11:25:40.294Z,36.40
2018-09-10T11:28:12.223Z,36.80
2018-09-10T11:30:44.198Z,36.80
2018-09-10T11:33:17.134Z,36.90
2018-09-10T11:35:50.593Z,37.20
2018-09-10T11:38:23.040Z,37.30
2018-09-10T11:40:55.620Z,37.40
2018-09-10T11:43:29.791Z,37.40
2018-09-10T11:46:03.921Z,37.40
2018-09-10T11:48:40.819Z,37.50
2018-09-10T11:51:16.363Z,37.60
2018-09-10T11:53:50.009Z,37.80
2018-09-10T11:56:23.062Z,38.10
2018-09-10T11:58:58.229Z,38.30
2018-09-10T12:01:31.437Z,38.50
2018-09-10T12:04:05.677Z,38.70
2018-09-10T12:06:39.152Z,38.70
2018-09-10T12:09:14.098Z,38.20
2018-09-10T12:11:46.569Z,38.20
2018-09-10T12:14:22.382Z,38.40
2018-09-10T12:16:54.349Z,38.20
2018-09-10T12:19:25.321Z,38.50
2018-09-10T12:21:56.835Z,38.50
2018-09-10T12:24:27.930Z,38.50
2018-09-10T12:26:59.737Z,38.50
2018-09-10T12:29:33.947Z,38.50
2018-09-10T12:32:06.309Z,38.00
2018-09-10T12:34:40.312Z,37.90
2018-09-10T12:37:11.046Z,38.30
2018-09-10T12:39:42.729Z,38.50
2018-09-10T12:42:13.701Z,38.40
2018-09-10T12:44:44.523Z,38.40
2018-09-10T12:47:16.266Z,38.40
2018-09-10T12:49:48.454Z,38.70
2018-09-10T12:52:30.387Z,38.60
2018-09-10T12:55:07.087Z,38.90
2018-09-10T12:57:42.285Z,38.60
2018-09-10T13:00:13.650Z,39.00
2018-09-10T13:02:57.578Z,38.70
2018-09-10T13:05:35.186Z,38.70
2018-09-10T13:08:06.902Z,38.50
2018-09-10T13:10:38.851Z,38.30
2018-09-10T13:13:09.629Z,38.20
2018-09-10T13:15:41.766Z,38.10
2018-09-10T13:18:13.649Z,38.10
2018-09-10T13:20:45.853Z,38.10
2018-09-10T13:23:20.432Z,38.10
2018-09-10T13:25:53.364Z,37.70
2018-09-10T13:28:27.233Z,37.80
2018-09-10T13:30:58.159Z,37.80
2018-09-10T13:33:29.051Z,37.50
2018-09-10T13:36:00.505Z,37.60
2018-09-10T13:38:31.930Z,37.60
2018-09-10T13:41:02.641Z,37.80
2018-09-10T13:43:33.495Z,38.10
2018-09-10T13:46:04.357Z,38.20
2018-09-10T13:48:35.111Z,37.80
2018-09-10T13:51:07.980Z,37.80
2018-09-10T13:53:40.123Z,37.90
2018-09-10T13:56:10.781Z,37.80
2018-09-10T13:58:41.409Z,37.50
2018-09-10T14:01:12.211Z,37.00
2018-09-10T14:03:44.802Z,35.90
2018-09-10T14:06:15.484Z,35.80
2018-09-10T14:08:46.369Z,36.20
2018-09-10T14:11:18.381Z,36.10
2018-09-10T14:13:49.297Z,36.60
2018-09-10T14:16:19.981Z,36.80
2018-09-10T14:18:51.012Z,36.90
2018-09-10T14:21:21.678Z,37.30
2018-09-10T14:23:53.604Z,37.20
2018-09-10T14:26:24.601Z,37.30
2018-09-10T14:28:56.450Z,37.50
2018-09-10T14:31:27.685Z,37.50
2018-09-10T14:33:58.591Z,37.60
2018-09-10T14:36:29.397Z,37.70
2018-09-10T14:39:00.329Z,37.50
2018-09-10T14:41:31.008Z,37.10
2018-09-10T14:44:02.410Z,37.10
2018-09-10T14:46:34.793Z,36.60
2018-09-10T14:49:05.689Z,36.30
2018-09-10T14:51:36.635Z,35.70
2018-09-10T14:54:07.428Z,35.20
2018-09-10T14:56:38.705Z,35.20
2018-09-10T14:59:09.525Z,35.10
2018-09-10T15:01:40.926Z,35.10
2018-09-10T15:04:11.911Z,35.10
2018-09-10T15:06:42.844Z,35.20
2018-09-10T15:09:13.578Z,34.90
2018-09-10T15:11:44.972Z,34.60
2018-09-10T15:14:15.627Z,34.40
2018-09-10T15:16:46.744Z,34.20
2018-09-10T15:19:18.356Z,34.10
2018-09-10T15:21:50.247Z,34.00
2018-09-10T15:24:23.544Z,34.00
2018-09-10T15:26:54.453Z,34.00
2018-09-10T15:29:25.924Z,33.80
2018-09-10T15:31:57.860Z,33.60
2018-09-10T15:34:33.172Z,33.40
2018-09-10T15:37:04.191Z,33.30
2018-09-10T15:39:34.906Z,33.10
2018-09-10T15:42:05.804Z,32.90
2018-09-10T15:44:36.536Z,32.70
2018-09-10T15:47:07.947Z,32.50
2018-09-10T15:49:38.761Z,32.40
2018-09-10T15:52:10.123Z,32.30
2018-09-10T15:54:41.126Z,32.40
2018-09-10T15:57:12.117Z,32.50
2018-09-10T15:59:43.759Z,32.70
2018-09-10T16:02:16.220Z,32.70
2018-09-10T16:04:48.736Z,32.60
2018-09-10T16:07:21.431Z,32.60
2018-09-10T16:09:53.616Z,32.40
2018-09-10T16:12:25.362Z,32.30
2018-09-10T16:14:59.600Z,32.10
2018-09-10T16:17:31.277Z,31.80
2018-09-10T16:20:03.773Z,31.60
2018-09-10T16:22:35.433Z,31.60
2018-09-10T16:25:08.351Z,31.30
2018-09-10T16:27:39.692Z,31.00
2018-09-10T16:30:12.297Z,31.00
2018-09-10T16:32:44.029Z,30.80
2018-09-10T16:35:15.623Z,30.60
2018-09-10T16:37:47.687Z,30.30
2018-09-10T16:40:19.374Z,30.10
2018-09-10T16:42:52.069Z,29.80
2018-09-10T16:45:24.662Z,29.60
2018-09-10T16:47:56.399Z,29.20
2018-09-10T16:50:28.299Z,28.80
2018-09-10T16:53:01.007Z,28.50
2018-09-10T16:55:33.189Z,28.20
2018-09-10T16:58:05.782Z,27.90
2018-09-10T17:00:37.745Z,27.60
2018-09-10T17:03:09.610Z,27.30
2018-09-10T17:05:41.399Z,26.90
2018-09-10T17:08:14.124Z,26.70
2018-09-10T17:10:45.769Z,26.30
2018-09-10T17:13:17.417Z,26.00
2018-09-10T17:15:49.727Z,25.80
2018-09-10T17:18:22.603Z,25.60
2018-09-10T17:20:55.010Z,25.40
2018-09-10T17:23:28.423Z,25.20
2018-09-10T17:26:01.479Z,25.10
2018-09-10T17:28:34.591Z,25.00
2018-09-10T17:31:06.708Z,24.80
2018-09-10T17:33:39.083Z,24.70
2018-09-10T17:36:10.905Z,24.60
2018-09-10T17:38:45.118Z,24.50
2018-09-10T17:41:27.849Z,24.50
2018-09-10T17:44:00.024Z,24.50
2018-09-10T17:46:32.348Z,24.40
2018-09-10T17:49:04.849Z,24.30
2018-09-10T17:51:37.123Z,24.20
2018-09-10T17:54:09.285Z,24.10
2018-09-10T17:56:41.487Z,24.00
2018-09-10T17:59:15.829Z,23.90
2018-09-10T18:01:47.730Z,23.90
2018-09-10T18:04:22.841Z,23.80
2018-09-10T18:06:55.136Z,23.70
2018-09-10T18:09:27.088Z,23.60
2018-09-10T18:11:58.864Z,23.60
2018-09-10T18:14:30.716Z,23.40
2018-09-10T18:17:03.452Z,23.30
2018-09-10T18:19:36.801Z,23.20
2018-09-10T18:22:08.706Z,23.10
2018-09-10T18:24:43.607Z,23.00
2018-09-10T18:27:15.451Z,22.90
2018-09-10T18:29:48.523Z,22.80
2018-09-10T18:32:22.016Z,22.70
2018-09-10T18:34:53.715Z,22.70
2018-09-10T18:37:26.239Z,22.70
2018-09-10T18:39:58.066Z,22.60
2018-09-10T18:42:30.063Z,22.60
2018-09-10T18:45:04.096Z,22.50
2018-09-10T18:47:37.462Z,22.20
2018-09-10T18:50:09.604Z,22.00
2018-09-10T18:52:42.183Z,21.80
2018-09-10T18:55:15.288Z,21.80
2018-09-10T18:57:47.996Z,21.80
2018-09-10T19:00:21.961Z,21.70
2018-09-10T19:02:56.627Z,21.70
2018-09-10T19:05:29.192Z,21.70
2018-09-10T19:08:01.514Z,21.60
2018-09-10T19:10:38.833Z,21.60
2018-09-10T19:13:13.031Z,21.60
2018-09-10T19:15:46.102Z,21.60
2018-09-10T19:18:20.541Z,21.70
2018-09-10T19:21:03.329Z,21.50
2018-09-10T19:23:38.401Z,21.40
2018-09-10T19:26:12.610Z,21.20
2018-09-10T19:28:50.582Z,21.20
2018-09-10T19:31:24.603Z,21.20
2018-09-10T19:33:58.100Z,21.20
2018-09-10T19:36:30.468Z,21.20
2018-09-10T19:39:04.389Z,21.10
2018-09-10T19:41:36.561Z,20.90
2018-09-10T19:44:08.607Z,20.90
2018-09-10T19:46:43.400Z,20.90
2018-09-10T19:49:16.537Z,20.80
2018-09-10T19:51:51.060Z,20.60
2018-09-10T19:54:25.259Z,20.50
2018-09-10T19:56:59.868Z,20.50
2018-09-10T19:59:32.311Z,20.60
2018-09-10T20:02:04.217Z,20.60
2018-09-10T20:04:36.636Z,20.60
2018-09-10T20:07:08.990Z,20.60
2018-09-10T20:09:41.420Z,20.60
2018-09-10T20:12:13.317Z,20.40
2018-09-10T20:14:46.043Z,20.30
2018-09-10T20:17:17.735Z,20.20
2018-09-10T20:19:49.805Z,20.20
2018-09-10T20:22:22.732Z,20.10
2018-09-10T20:24:54.908Z,20.10
2018-09-10T20:27:27.961Z,20.00
2018-09-10T20:30:00.906Z,20.00
2018-09-10T20:32:33.400Z,19.90
2018-09-10T20:35:05.528Z,19.90
2018-09-10T20:37:37.258Z,19.90
2018-09-10T20:40:09.224Z,19.90
2018-09-10T20:42:41.352Z,19.90
2018-09-10T20:45:13.458Z,19.80
2018-09-10T20:47:46.088Z,19.90
2018-09-10T20:50:18.206Z,19.80
2018-09-10T20:52:50.954Z,19.70
2018-09-10T20:55:22.880Z,19.70
2018-09-10T20:57:55.855Z,19.70
2018-09-10T21:00:31.702Z,19.50
2018-09-10T21:03:03.935Z,19.50
2018-09-10T21:05:37.288Z,19.50
2018-09-10T21:08:11.500Z,19.40
2018-09-10T21:10:43.967Z,19.40
2018-09-10T21:13:15.479Z,19.30
2018-09-10T21:15:47.468Z,19.20
2018-09-10T21:18:20.472Z,19.20
2018-09-10T21:20:51.689Z,19.20
2018-09-10T21:23:23.657Z,19.10
2018-09-10T21:25:55.085Z,19.10
2018-09-10T21:28:26.085Z,19.00
2018-09-10T21:30:57.004Z,18.90
2018-09-10T21:33:27.653Z,18.80
2018-09-10T21:35:58.290Z,18.80
2018-09-10T21:38:29.862Z,18.80
2018-09-10T21:41:01.149Z,18.80
2018-09-10T21:43:32.015Z,18.80
2018-09-10T21:46:02.681Z,18.70
2018-09-10T21:48:33.587Z,18.60
2018-09-10T21:51:04.293Z,18.40
2018-09-10T21:53:35.580Z,18.30
2018-09-10T21:56:06.636Z,18.20
2018-09-10T21:58:37.501Z,18.20
2018-09-10T22:01:08.341Z,18.10
2018-09-10T22:03:39.578Z,18.10
2018-09-10T22:06:10.751Z,18.10
2018-09-10T22:08:41.399Z,18.10
2018-09-10T22:11:12.162Z,18.10
2018-09-10T22:13:42.933Z,18.10
2018-09-10T22:16:13.771Z,18.20
2018-09-10T22:18:44.448Z,18.20
2018-09-10T22:21:15.076Z,18.10
2018-09-10T22:23:46.051Z,18.10
2018-09-10T22:26:17.297Z,18.20
2018-09-10T22:28:47.963Z,18.20
2018-09-10T22:31:18.672Z,18.20
2018-09-10T22:33:49.593Z,18.20
2018-09-10T22:36:20.222Z,18.10
2018-09-10T22:38:50.849Z,18.00
2018-09-10T22:41:21.480Z,18.00
2018-09-10T22:43:52.000Z,17.90
2018-09-10T22:46:22.816Z,17.90
2018-09-10T22:48:53.376Z,17.90
2018-09-10T22:51:23.977Z,17.80
2018-09-10T22:53:54.974Z,17.60
2018-09-10T22:56:25.578Z,17.60
2018-09-10T22:58:56.384Z,17.60
2018-09-10T23:01:27.058Z,17.50
2018-09-10T23:03:57.652Z,17.50
2018-09-10T23:06:28.317Z,17.30
2018-09-10T23:08:58.782Z,17.30
2018-09-10T23:11:29.413Z,17.30
2018-09-10T23:13:59.930Z,17.30
2018-09-10T23:16:30.626Z,17.30
2018-09-10T23:19:01.185Z,17.30
2018-09-10T23:21:31.765Z,17.30
2018-09-10T23:24:02.532Z,17.20
2018-09-10T23:26:32.970Z,17.20
2018-09-10T23:29:03.526Z,17.10
2018-09-10T23:31:34.117Z,17.10
2018-09-10T23:34:04.703Z,17.00
2018-09-10T23:36:35.257Z,16.80
2018-09-10T23:39:08.153Z,16.80
2018-09-10T23:41:38.799Z,16.80
2018-09-10T23:44:09.446Z,16.70
2018-09-10T23:46:39.840Z,16.70
2018-09-10T23:49:10.518Z,16.70
2018-09-10T23:51:41.132Z,16.70
2018-09-10T23:54:11.743Z,16.70
2018-09-10T23:56:42.186Z,16.70
2018-09-10T23:59:12.847Z,16.60
